createdAt,value
2022-11-09T00:01:39.863Z,94160.41
2022-11-09T00:16:41.325Z,94178.78
2022-11-09T00:31:43.331Z,94165.03
2022-11-09T00:46:44.812Z,94169.25
2022-11-09T01:01:46.333Z,94156.69
2022-11-09T01:16:47.775Z,94163.50
2022-11-09T01:31:49.290Z,94151.09
2022-11-09T01:46:53.980Z,94147.09
2022-11-09T02:01:55.940Z,94145.53
2022-11-09T02:16:57.425Z,94158.31
2022-11-09T02:32:01.245Z,94159.19
2022-11-09T02:47:02.885Z,94148.53
2022-11-09T03:02:04.323Z,94147.88
2022-11-09T03:17:05.781Z,94164.94
2022-11-09T03:32:07.565Z,94159.44
2022-11-09T03:47:08.997Z,94168.22
2022-11-09T04:02:10.622Z,94167.34
2022-11-09T04:17:12.112Z,94168.19
2022-11-09T04:32:13.685Z,94168.19
2022-11-09T04:47:15.122Z,94172.75
2022-11-09T05:02:16.549Z,94176.56
2022-11-09T05:17:18.027Z,94192.78
2022-11-09T05:32:19.519Z,94203.97
2022-11-09T05:47:21.058Z,94214.97
2022-11-09T06:02:23.081Z,94228.53
2022-11-09T06:17:24.582Z,94239.16
2022-11-09T06:32:26.060Z,94237.75
2022-11-09T06:47:28.082Z,94237.09
2022-11-09T07:02:29.529Z,94244.94
2022-11-09T07:17:31.759Z,94249.78
2022-11-09T07:47:59.548Z,94243.75
2022-11-09T08:03:01.220Z,94256.38
2022-11-09T08:18:04.032Z,94253.91
2022-11-09T08:33:05.571Z,94251.22
2022-11-09T08:48:08.118Z,94250.91
2022-11-09T09:03:09.722Z,94251.44
2022-11-09T09:18:11.192Z,94242.28
2022-11-09T09:33:12.912Z,94229.56
2022-11-09T09:48:21.487Z,94220.00
2022-11-09T10:03:23.241Z,94208.59
2022-11-09T10:18:47.972Z,94186.66
2022-11-09T10:33:53.401Z,94187.91
2022-11-09T10:48:55.682Z,94176.06
2022-11-09T11:03:57.490Z,94162.91
2022-11-09T11:18:59.055Z,94149.31
2022-11-09T11:34:01.314Z,94130.59
2022-11-09T11:49:08.589Z,94130.28
2022-11-09T12:04:16.650Z,94115.19
2022-11-09T12:19:35.619Z,94119.63
2022-11-09T12:34:47.529Z,94105.88
2022-11-09T12:49:49.222Z,94108.47
2022-11-09T13:05:00.106Z,94101.34
2022-11-09T13:20:01.608Z,94092.47
2022-11-09T13:35:03.969Z,94098.22
2022-11-09T13:50:16.649Z,94105.44
2022-11-09T14:05:32.613Z,94102.81
2022-11-09T14:20:34.126Z,94099.94
2022-11-09T14:35:36.264Z,94110.03
2022-11-09T14:50:37.872Z,94106.13
2022-11-09T15:05:40.751Z,94126.13
2022-11-09T15:20:42.221Z,94124.16
2022-11-09T15:35:50.305Z,94121.91
2022-11-09T15:50:52.039Z,94119.94
2022-11-09T16:05:53.523Z,94124.00
2022-11-09T16:20:55.042Z,94142.44
2022-11-09T16:35:58.292Z,94150.50
2022-11-09T16:51:00.101Z,94151.38
2022-11-09T17:06:02.157Z,94156.47
2022-11-09T17:21:04.143Z,94174.56
2022-11-09T17:36:07.625Z,94175.03
2022-11-09T17:51:09.641Z,94188.81
2022-11-09T18:06:17.357Z,94188.41
2022-11-09T18:21:19.808Z,94204.13
2022-11-09T18:36:21.768Z,94203.38
2022-11-09T18:51:23.493Z,94214.06
2022-11-09T19:06:25.006Z,94215.59
2022-11-09T19:21:39.037Z,94204.81
2022-11-09T19:36:41.681Z,94206.78
2022-11-09T19:51:43.189Z,94212.13
2022-11-09T20:06:45.014Z,94217.56
2022-11-09T20:21:46.540Z,94237.97
2022-11-09T20:36:48.117Z,94240.50
2022-11-09T20:51:49.582Z,94235.59
2022-11-09T21:06:51.182Z,94234.13
2022-11-09T21:21:52.696Z,94232.75
2022-11-09T21:36:54.504Z,94238.03
2022-11-09T21:51:56.230Z,94236.34
2022-11-09T22:16:09.456Z,94249.63
2022-11-09T22:31:11.911Z,94248.69
2022-11-09T22:46:15.099Z,94245.38
2022-11-09T23:01:17.817Z,94252.75
2022-11-09T23:16:19.708Z,94248.84
2022-11-09T23:31:24.988Z,94253.56
2022-11-09T23:46:26.507Z,94241.94
